createdAt,value
2018-12-20T00:00:16.722Z,23.6
2018-12-20T00:01:19.274Z,24
2018-12-20T00:02:21.810Z,23.5
2018-12-20T00:03:24.745Z,23.7
2018-12-20T00:04:27.260Z,23.7
2018-12-20T00:05:29.743Z,23.8
2018-12-20T00:06:32.360Z,23.7
2018-12-20T00:07:35.135Z,23.4
2018-12-20T00:08:37.573Z,23.7
2018-12-20T00:09:40.282Z,23.9
2018-12-20T00:10:42.944Z,23.5
2018-12-20T00:11:45.646Z,23.8
2018-12-20T00:12:48.078Z,23.8
2018-12-20T00:13:50.350Z,23.8
2018-12-20T00:14:52.692Z,23.8
2018-12-20T00:15:55.170Z,23.7
2018-12-20T00:16:57.886Z,23.9
2018-12-20T00:18:00.107Z,23.8
2018-12-20T00:19:02.226Z,23.9
2018-12-20T00:20:04.712Z,24.1
2018-12-20T00:21:07.097Z,23.9
2018-12-20T00:22:09.693Z,23.8
2018-12-20T00:23:12.035Z,23.7
2018-12-20T00:24:15.081Z,23.8
2018-12-20T00:25:17.663Z,23.9
2018-12-20T00:26:20.485Z,23.8
2018-12-20T00:27:23.142Z,23.7
2018-12-20T00:28:25.817Z,23.9
2018-12-20T00:29:28.468Z,23.7
2018-12-20T00:30:30.836Z,23.7
2018-12-20T00:31:33.326Z,23.8
2018-12-20T00:32:36.082Z,23.6
2018-12-20T00:33:38.836Z,24.1
2018-12-20T00:34:41.434Z,23.7
2018-12-20T00:35:44.063Z,23.9
2018-12-20T00:36:46.835Z,23.9
2018-12-20T00:37:49.493Z,24.1
2018-12-20T00:38:52.163Z,24.1
2018-12-20T00:39:55.173Z,23.9
2018-12-20T00:40:58.023Z,23.9
2018-12-20T00:42:00.426Z,23.9
2018-12-20T00:43:02.913Z,24.2
2018-12-20T00:44:05.344Z,24
2018-12-20T00:45:07.860Z,23.9
2018-12-20T00:46:10.893Z,24
2018-12-20T00:47:13.424Z,24.1
2018-12-20T00:48:16.062Z,24
2018-12-20T00:49:18.857Z,24.1
2018-12-20T00:50:21.629Z,24.3
2018-12-20T00:51:24.224Z,24
2018-12-20T00:52:26.818Z,23.9
2018-12-20T00:53:29.765Z,24
2018-12-20T00:54:33.962Z,24
2018-12-20T00:55:36.613Z,24.3
2018-12-20T00:56:39.241Z,23.8
2018-12-20T00:57:42.181Z,23.9
2018-12-20T00:58:44.938Z,23.9
2018-12-20T00:59:47.471Z,24.2
2018-12-20T01:00:50.166Z,24
2018-12-20T01:01:52.595Z,24.1
2018-12-20T01:02:55.787Z,24
2018-12-20T01:03:58.459Z,24.4
2018-12-20T01:05:00.771Z,24.3
2018-12-20T01:06:03.490Z,24.5
2018-12-20T01:07:06.334Z,24.2
2018-12-20T01:08:08.714Z,24.6
2018-12-20T01:09:11.505Z,24.1
2018-12-20T01:10:14.283Z,23.9
2018-12-20T01:11:16.941Z,24.3
2018-12-20T01:12:19.440Z,24.3
2018-12-20T01:13:22.256Z,24
2018-12-20T01:14:24.812Z,24.3
2018-12-20T01:15:27.393Z,24.2
2018-12-20T01:16:30.158Z,24
2018-12-20T01:17:33.084Z,24.4
2018-12-20T01:18:35.597Z,24
2018-12-20T01:19:38.421Z,24.4
2018-12-20T01:20:41.052Z,23.9
2018-12-20T01:21:43.449Z,24.1
2018-12-20T01:22:46.076Z,24.4
2018-12-20T01:23:48.462Z,24.2
2018-12-20T01:24:50.943Z,24.1
2018-12-20T01:25:53.255Z,24.1
2018-12-20T01:26:55.726Z,24.1
2018-12-20T01:27:58.204Z,24.3
2018-12-20T01:29:00.385Z,24.2
2018-12-20T01:30:03.023Z,24
2018-12-20T01:31:05.107Z,23.9
2018-12-20T01:32:07.986Z,24.2
2018-12-20T01:33:10.252Z,24.1
2018-12-20T01:34:13.176Z,24.1
2018-12-20T01:35:15.498Z,24.7
2018-12-20T01:36:18.085Z,24.4
2018-12-20T01:37:20.582Z,24.5
2018-12-20T01:38:23.081Z,24.6
2018-12-20T01:39:25.399Z,24.5
2018-12-20T01:40:28.093Z,24.4
2018-12-20T01:41:30.834Z,23.9
2018-12-20T01:42:33.781Z,24
2018-12-20T01:43:36.645Z,24.1
2018-12-20T01:44:39.118Z,24.2
2018-12-20T01:45:40.453Z,24.7
2018-12-20T01:46:43.339Z,24.1
2018-12-20T01:47:46.163Z,24
2018-12-20T01:48:48.639Z,24.7
2018-12-20T01:49:51.380Z,24
2018-12-20T01:50:53.583Z,24.3
2018-12-20T01:51:55.607Z,24.4
2018-12-20T01:52:58.190Z,24.1
2018-12-20T01:54:00.767Z,24.2
2018-12-20T01:55:03.415Z,24.2
2018-12-20T01:56:06.249Z,24.3
2018-12-20T01:57:09.200Z,24.1
2018-12-20T01:58:12.066Z,24.4
2018-12-20T01:59:14.449Z,24.2
2018-12-20T02:00:16.947Z,24.4
2018-12-20T02:01:19.622Z,24.3
2018-12-20T02:02:21.884Z,24.1
2018-12-20T02:03:24.437Z,24.3
2018-12-20T02:04:27.091Z,24.3
2018-12-20T02:05:29.718Z,24.3
2018-12-20T02:06:32.318Z,24.1
2018-12-20T02:07:34.943Z,24.3
2018-12-20T02:08:37.911Z,24.6
2018-12-20T02:09:40.340Z,24.5
2018-12-20T02:10:42.950Z,24.4
2018-12-20T02:11:45.130Z,24.3
2018-12-20T02:12:47.139Z,24.4
2018-12-20T02:13:49.616Z,24.3
2018-12-20T02:14:52.161Z,24.2
2018-12-20T02:15:58.121Z,24.5
2018-12-20T02:17:00.850Z,24.4
2018-12-20T02:18:03.459Z,24.2
2018-12-20T02:19:05.506Z,24.3
2018-12-20T02:20:08.165Z,24.3
2018-12-20T02:21:10.442Z,24.1
2018-12-20T02:22:13.060Z,24.1
2018-12-20T02:23:15.666Z,24.3
2018-12-20T02:24:18.274Z,24.2
2018-12-20T02:25:20.693Z,24.4
2018-12-20T02:26:23.237Z,24.3
2018-12-20T02:27:25.907Z,24.3
2018-12-20T02:28:28.358Z,24.5
2018-12-20T02:29:30.899Z,24.4
2018-12-20T02:30:33.534Z,24
2018-12-20T02:31:36.224Z,24.3
2018-12-20T02:32:38.705Z,24.5
2018-12-20T02:33:41.573Z,24.1
2018-12-20T02:34:44.190Z,24.3
2018-12-20T02:35:46.825Z,24.2
2018-12-20T02:36:49.791Z,24.1
2018-12-20T02:37:52.720Z,23.9
2018-12-20T02:38:55.469Z,24.4
2018-12-20T02:39:57.623Z,24.2
2018-12-20T02:41:00.696Z,24.4
2018-12-20T02:42:03.346Z,24.3
2018-12-20T02:43:06.146Z,24.6
2018-12-20T02:44:09.013Z,24.3
2018-12-20T02:45:11.584Z,24.3
2018-12-20T02:46:13.973Z,24.2
2018-12-20T02:47:16.764Z,24.2
2018-12-20T02:48:19.507Z,24.3
2018-12-20T02:49:22.178Z,24.6
2018-12-20T02:50:25.072Z,24.2
2018-12-20T02:51:27.914Z,24.4
2018-12-20T02:52:30.675Z,24.2
2018-12-20T02:53:33.536Z,24.4
2018-12-20T02:54:36.453Z,24.1
2018-12-20T02:55:39.169Z,24.6
2018-12-20T02:56:41.643Z,24.4
2018-12-20T02:57:43.943Z,24.4
2018-12-20T02:58:46.069Z,24.2
2018-12-20T02:59:49.037Z,24.5
2018-12-20T03:00:51.451Z,24.3
2018-12-20T03:01:54.063Z,24.3
2018-12-20T03:02:56.931Z,24
2018-12-20T03:03:59.911Z,24.4
2018-12-20T03:05:02.688Z,24.2
2018-12-20T03:06:05.083Z,24.3
2018-12-20T03:07:07.852Z,24.4
2018-12-20T03:08:10.312Z,24.6
2018-12-20T03:09:12.570Z,24.3
2018-12-20T03:10:14.805Z,24.4
2018-12-20T03:11:17.459Z,24.4
2018-12-20T03:12:20.070Z,24.4
2018-12-20T03:13:22.537Z,24.4
2018-12-20T03:14:25.049Z,24.3
2018-12-20T03:15:27.866Z,24.5
2018-12-20T03:16:30.422Z,24.3
2018-12-20T03:17:33.075Z,24
2018-12-20T03:18:35.523Z,24.2
2018-12-20T03:19:37.738Z,24.4
2018-12-20T03:20:40.441Z,24.2
2018-12-20T03:21:42.978Z,24.5
2018-12-20T03:22:45.264Z,24.6
2018-12-20T03:23:47.477Z,24.4
2018-12-20T03:24:49.957Z,24.2
2018-12-20T03:25:52.398Z,24.4
2018-12-20T03:26:54.875Z,24.3
2018-12-20T03:27:57.524Z,24.5
2018-12-20T03:28:59.905Z,24.3
2018-12-20T03:30:03.056Z,24.3
2018-12-20T03:31:05.979Z,24.4
2018-12-20T03:32:08.926Z,24.5
2018-12-20T03:33:12.452Z,24.3
2018-12-20T03:34:14.913Z,24.5
2018-12-20T03:35:17.779Z,24
2018-12-20T03:36:20.339Z,24.5
2018-12-20T03:37:23.045Z,24.4
2018-12-20T03:38:25.548Z,24.2
2018-12-20T03:39:28.220Z,24.3
2018-12-20T03:40:30.789Z,24.2
2018-12-20T03:41:33.627Z,24.6
2018-12-20T03:42:36.129Z,24.1
2018-12-20T03:43:39.039Z,24.4
2018-12-20T03:44:41.724Z,24.1
2018-12-20T03:45:44.125Z,24.1
2018-12-20T03:46:47.003Z,24.3
2018-12-20T03:47:49.769Z,24.1
2018-12-20T03:48:52.317Z,24.2
2018-12-20T03:49:55.023Z,24.7
2018-12-20T03:50:57.788Z,24.7
2018-12-20T03:52:00.874Z,24.3
2018-12-20T03:53:03.664Z,24.4
2018-12-20T03:54:06.558Z,24.1
2018-12-20T03:55:09.191Z,24.1
2018-12-20T03:56:11.904Z,24.5
2018-12-20T03:57:14.547Z,24.2
2018-12-20T03:58:17.575Z,24.4
2018-12-20T03:59:19.475Z,24.3
2018-12-20T04:00:22.104Z,24.2
2018-12-20T04:01:25.067Z,24.4
2018-12-20T04:02:27.813Z,24.4
2018-12-20T04:03:30.303Z,24.3
2018-12-20T04:04:33.303Z,24.3
2018-12-20T04:05:36.108Z,24.1
2018-12-20T04:06:38.441Z,24.3
2018-12-20T04:07:41.236Z,24.2
2018-12-20T04:08:43.759Z,23.9
2018-12-20T04:09:46.527Z,24.1
2018-12-20T04:10:49.378Z,24.4
2018-12-20T04:11:51.725Z,24.5
2018-12-20T04:12:54.397Z,24.5
2018-12-20T04:13:56.544Z,24.4
2018-12-20T04:14:58.966Z,24.5
2018-12-20T04:16:01.733Z,24.2
2018-12-20T04:17:04.724Z,24.5
2018-12-20T04:18:07.696Z,24.6
2018-12-20T04:19:10.303Z,24.3
2018-12-20T04:20:12.766Z,24.7
2018-12-20T04:21:15.338Z,24.7
2018-12-20T04:22:18.041Z,24.4
2018-12-20T04:23:20.689Z,24.1
2018-12-20T04:24:23.160Z,24.2
2018-12-20T04:25:25.556Z,24.5
2018-12-20T04:26:28.005Z,24.4
2018-12-20T04:27:30.472Z,24.2
2018-12-20T04:28:33.226Z,24.2
2018-12-20T04:29:35.735Z,24.5
2018-12-20T04:30:38.293Z,24.2
2018-12-20T04:31:40.914Z,24.1
2018-12-20T04:32:43.592Z,24.2
2018-12-20T04:33:46.412Z,24.1
2018-12-20T04:34:49.052Z,24.4
2018-12-20T04:35:51.874Z,24.2
2018-12-20T04:36:54.313Z,24
2018-12-20T04:37:56.472Z,24.2
2018-12-20T04:38:58.918Z,24.6
2018-12-20T04:40:01.634Z,24.1
2018-12-20T04:41:04.692Z,23.9
2018-12-20T04:42:07.173Z,24.3
2018-12-20T04:43:09.681Z,24.7
2018-12-20T04:44:12.394Z,24.4
2018-12-20T04:45:15.207Z,24.1
2018-12-20T04:46:17.970Z,24.2
2018-12-20T04:47:21.369Z,24.4
2018-12-20T04:48:24.812Z,24
2018-12-20T04:49:27.521Z,23.9
2018-12-20T04:50:29.804Z,24
2018-12-20T04:51:32.336Z,24.4
2018-12-20T04:52:35.003Z,24.2
2018-12-20T04:53:37.663Z,24.1
2018-12-20T04:54:40.041Z,24.4
2018-12-20T04:55:42.484Z,24
2018-12-20T04:56:45.270Z,23.9
2018-12-20T04:57:47.751Z,24
2018-12-20T04:58:50.418Z,24.3
2018-12-20T04:59:52.935Z,24.2
2018-12-20T05:00:55.773Z,24.1
2018-12-20T05:01:58.557Z,24.4
2018-12-20T05:03:01.168Z,24
2018-12-20T05:04:04.197Z,24.3
2018-12-20T05:05:06.917Z,24.1
2018-12-20T05:06:09.470Z,24.3
2018-12-20T05:07:12.279Z,23.9
2018-12-20T05:08:14.888Z,24.4
2018-12-20T05:09:17.457Z,24
2018-12-20T05:10:20.286Z,24.2
2018-12-20T05:11:23.094Z,24.2
2018-12-20T05:12:25.930Z,24.6
2018-12-20T05:13:28.454Z,24.1
2018-12-20T05:14:30.702Z,24.2
2018-12-20T05:15:33.185Z,24
2018-12-20T05:16:35.586Z,24
2018-12-20T05:17:38.386Z,24
2018-12-20T05:18:41.732Z,24.1
2018-12-20T05:19:44.211Z,23.7
2018-12-20T05:20:47.432Z,24.2
2018-12-20T05:21:50.020Z,24
2018-12-20T05:22:52.405Z,24.3
2018-12-20T05:23:54.995Z,24.3
2018-12-20T05:24:57.502Z,23.8
2018-12-20T05:25:59.707Z,24.1
2018-12-20T05:27:02.174Z,23.8
2018-12-20T05:28:04.607Z,24
2018-12-20T05:29:07.023Z,24.3
2018-12-20T05:30:09.825Z,24.2
2018-12-20T05:31:12.573Z,24.2
2018-12-20T05:32:15.128Z,24.3
2018-12-20T05:33:17.267Z,24.1
2018-12-20T05:34:20.098Z,23.9
2018-12-20T05:35:22.802Z,23.9
2018-12-20T05:36:25.236Z,24.2
2018-12-20T05:37:27.986Z,24.3
2018-12-20T05:38:30.532Z,24.3
2018-12-20T05:39:32.661Z,24.2
2018-12-20T05:40:35.338Z,24.1
2018-12-20T05:41:37.774Z,23.8
2018-12-20T05:42:40.235Z,24
2018-12-20T05:43:42.876Z,23.9
2018-12-20T05:44:47.592Z,23.9
2018-12-20T05:45:50.436Z,23.7
2018-12-20T05:46:52.873Z,23.9
2018-12-20T05:47:55.781Z,24.2
2018-12-20T05:48:58.629Z,23.7
2018-12-20T05:50:00.813Z,24.1
2018-12-20T05:51:03.345Z,24
2018-12-20T05:52:05.953Z,23.9
2018-12-20T05:53:08.167Z,24.2
2018-12-20T05:54:10.461Z,24.1
2018-12-20T05:55:13.188Z,24.2
2018-12-20T05:56:15.885Z,24
2018-12-20T05:57:18.610Z,24.2
2018-12-20T05:58:20.698Z,23.7
2018-12-20T05:59:23.063Z,23.9
2018-12-20T06:00:25.342Z,23.9
2018-12-20T06:01:28.081Z,23.8
2018-12-20T06:02:30.800Z,24.2
2018-12-20T06:03:33.197Z,24
2018-12-20T06:04:35.972Z,23.8
2018-12-20T06:05:38.729Z,24
2018-12-20T06:06:41.200Z,23.9
2018-12-20T06:07:43.731Z,24.1
2018-12-20T06:08:46.174Z,24.1
2018-12-20T06:09:48.534Z,23.8
2018-12-20T06:10:50.699Z,23.8
2018-12-20T06:11:53.127Z,23.8
2018-12-20T06:12:55.832Z,23.7
2018-12-20T06:13:58.247Z,24
2018-12-20T06:15:00.646Z,24
2018-12-20T06:16:03.074Z,23.9
2018-12-20T06:17:09.006Z,23.9
2018-12-20T06:18:11.641Z,23.9
2018-12-20T06:19:14.408Z,23.8
2018-12-20T06:20:17.062Z,24
2018-12-20T06:21:20.134Z,23.9
2018-12-20T06:22:22.714Z,23.9
2018-12-20T06:23:24.881Z,23.9
2018-12-20T06:24:26.920Z,23.9
2018-12-20T06:25:28.810Z,23.8
2018-12-20T06:26:31.243Z,23.7
2018-12-20T06:27:33.677Z,23.8
2018-12-20T06:28:35.813Z,23.7
2018-12-20T06:29:37.962Z,23.9
2018-12-20T06:30:40.128Z,23.9
2018-12-20T06:31:42.546Z,23.9
2018-12-20T06:32:44.965Z,24
2018-12-20T06:33:47.117Z,23.8
2018-12-20T06:34:49.032Z,23.8
2018-12-20T06:35:51.188Z,24
2018-12-20T06:36:53.698Z,24
2018-12-20T06:37:55.868Z,24.1
2018-12-20T06:38:57.997Z,23.7
2018-12-20T06:40:00.164Z,23.9
2018-12-20T06:41:02.592Z,23.8
2018-12-20T06:42:04.743Z,24
2018-12-20T06:43:07.194Z,24
2018-12-20T06:44:09.613Z,23.9
2018-12-20T06:45:11.776Z,23.6
2018-12-20T06:46:20.999Z,23.7
2018-12-20T06:47:19.177Z,23.9
2018-12-20T06:48:21.722Z,23.9
2018-12-20T06:49:23.904Z,24
2018-12-20T06:50:26.150Z,23.8
2018-12-20T06:51:28.329Z,23.9
2018-12-20T06:52:30.765Z,24.1
2018-12-20T06:53:33.203Z,23.8
2018-12-20T06:54:35.424Z,24
2018-12-20T06:55:37.836Z,23.9
2018-12-20T06:56:40.083Z,24
2018-12-20T06:57:42.516Z,23.7
2018-12-20T06:58:44.944Z,24
2018-12-20T06:59:46.801Z,24
2018-12-20T07:00:48.965Z,24.1
2018-12-20T07:01:51.388Z,24
2018-12-20T07:02:53.836Z,23.8
2018-12-20T07:03:56.257Z,23.9
2018-12-20T07:04:58.424Z,24
2018-12-20T07:06:00.611Z,24.2
2018-12-20T07:07:02.728Z,23.9
2018-12-20T07:08:04.863Z,23.7
2018-12-20T07:09:06.753Z,23.7
2018-12-20T07:10:08.649Z,23.9
2018-12-20T07:11:10.814Z,24.1
2018-12-20T07:12:13.240Z,23.6
2018-12-20T07:13:15.659Z,23.5
2018-12-20T07:14:17.785Z,23.8
2018-12-20T07:15:19.857Z,23.9
2018-12-20T07:16:29.082Z,24
2018-12-20T07:17:27.265Z,23.8
2018-12-20T07:18:29.692Z,23.8
2018-12-20T07:19:31.922Z,24.1
2018-12-20T07:20:34.424Z,23.7
2018-12-20T07:21:36.849Z,24
2018-12-20T07:22:38.713Z,23.8
2018-12-20T07:23:41.142Z,23.8
2018-12-20T07:24:43.313Z,23.7
2018-12-20T07:25:45.469Z,23.7
2018-12-20T07:26:47.363Z,24.1
2018-12-20T07:27:49.559Z,23.8
2018-12-20T07:28:51.981Z,23.8
2018-12-20T07:29:54.413Z,23.9
2018-12-20T07:30:56.865Z,23.8
2018-12-20T07:31:58.762Z,23.9
2018-12-20T07:33:01.187Z,23.9
2018-12-20T07:34:03.616Z,23.9
2018-12-20T07:35:05.762Z,23.8
2018-12-20T07:36:08.007Z,24
2018-12-20T07:37:09.913Z,23.9
2018-12-20T07:38:11.511Z,23.9
2018-12-20T07:39:13.935Z,24
2018-12-20T07:40:16.443Z,23.8
2018-12-20T07:41:18.602Z,23.8
2018-12-20T07:42:21.033Z,23.8
2018-12-20T07:43:23.231Z,23.8
2018-12-20T07:44:25.761Z,23.8
2018-12-20T07:45:27.911Z,23.8
2018-12-20T07:46:37.400Z,23.9
2018-12-20T07:47:35.310Z,23.9
2018-12-20T07:48:37.768Z,24
2018-12-20T07:49:40.201Z,23.8
2018-12-20T07:50:42.343Z,23.7
2018-12-20T07:51:44.225Z,23.8
2018-12-20T07:52:46.403Z,23.8
2018-12-20T07:53:48.545Z,23.6
2018-12-20T07:54:50.972Z,23.7
2018-12-20T07:55:53.127Z,23.9
2018-12-20T07:56:55.287Z,24.1
2018-12-20T07:57:57.741Z,24.1
2018-12-20T07:58:59.625Z,23.9
2018-12-20T08:00:01.499Z,23.7
2018-12-20T08:01:03.934Z,24
2018-12-20T08:02:06.351Z,23.9
2018-12-20T08:03:08.247Z,23.9
2018-12-20T08:04:10.704Z,24.1
2018-12-20T08:05:13.147Z,23.9
2018-12-20T08:06:15.389Z,23.8
2018-12-20T08:07:17.815Z,23.7
2018-12-20T08:08:19.955Z,23.6
2018-12-20T08:09:22.121Z,23.9
2018-12-20T08:10:24.278Z,23.7
2018-12-20T08:11:26.153Z,23.7
2018-12-20T08:12:28.599Z,23.5
2018-12-20T08:13:30.732Z,23.8
2018-12-20T08:14:33.164Z,23.8
2018-12-20T08:15:35.581Z,23.7
2018-12-20T08:16:45.839Z,23.9
2018-12-20T08:17:42.711Z,23.8
2018-12-20T08:18:45.155Z,23.9
2018-12-20T08:19:47.303Z,23.8
2018-12-20T08:20:49.733Z,23.8
2018-12-20T08:21:52.173Z,23.6
2018-12-20T08:22:54.595Z,23.7
2018-12-20T08:23:57.016Z,23.6
2018-12-20T08:24:59.453Z,23.7
2018-12-20T08:26:01.586Z,23.7
2018-12-20T08:27:03.759Z,23.7
2018-12-20T08:28:05.911Z,23.9
2018-12-20T08:29:07.802Z,23.6
2018-12-20T08:30:10.338Z,23.9
2018-12-20T08:31:12.760Z,23.7
2018-12-20T08:32:14.915Z,23.7
2018-12-20T08:33:16.771Z,23.6
2018-12-20T08:34:19.300Z,23.8
2018-12-20T08:35:21.743Z,23.7
2018-12-20T08:36:24.161Z,23.6
2018-12-20T08:37:26.066Z,23.6
2018-12-20T08:38:28.043Z,23.6
2018-12-20T08:39:30.212Z,23.7
2018-12-20T08:40:32.644Z,23.7
2018-12-20T08:41:35.074Z,23.8
2018-12-20T08:42:37.500Z,23.6
2018-12-20T08:43:39.660Z,23.8
2018-12-20T08:44:41.802Z,23.5
2018-12-20T08:45:43.410Z,23.9
2018-12-20T08:46:54.009Z,23.5
2018-12-20T08:47:50.832Z,23.7
2018-12-20T08:48:53.273Z,23.6
2018-12-20T08:49:55.399Z,23.8
2018-12-20T08:50:57.830Z,23.6
2018-12-20T08:52:00.280Z,23.8
2018-12-20T08:53:02.704Z,23.6
2018-12-20T08:54:05.157Z,23.9
2018-12-20T08:55:07.583Z,23.7
2018-12-20T08:56:10.050Z,23.7
2018-12-20T08:57:12.195Z,23.8
2018-12-20T08:58:14.633Z,23.7
2018-12-20T08:59:16.780Z,23.8
2018-12-20T09:00:18.937Z,23.6
2018-12-20T09:01:21.075Z,23.5
2018-12-20T09:02:23.231Z,23.9
2018-12-20T09:03:25.691Z,23.7
2018-12-20T09:04:27.843Z,23.9
2018-12-20T09:05:30.261Z,23.8
2018-12-20T09:06:32.692Z,23.6
2018-12-20T09:07:34.841Z,23.9
2018-12-20T09:08:37.025Z,23.8
2018-12-20T09:09:39.462Z,23.6
2018-12-20T09:10:41.625Z,23.6
2018-12-20T09:11:44.050Z,23.7
2018-12-20T09:12:46.206Z,23.9
2018-12-20T09:13:48.636Z,23.7
2018-12-20T09:14:51.065Z,23.9
2018-12-20T09:15:53.504Z,23.4
2018-12-20T09:17:02.802Z,23.8
2018-12-20T09:18:00.922Z,23.7
2018-12-20T09:19:03.372Z,23.9
2018-12-20T09:20:05.794Z,23.8
2018-12-20T09:21:08.219Z,23.8
2018-12-20T09:22:10.654Z,23.8
2018-12-20T09:23:12.799Z,23.7
2018-12-20T09:24:15.223Z,23.8
2018-12-20T09:25:17.084Z,23.6
2018-12-20T09:26:19.517Z,23.9
2018-12-20T09:27:21.652Z,23.7
2018-12-20T09:28:24.092Z,23.7
2018-12-20T09:29:25.982Z,23.8
2018-12-20T09:30:30.542Z,23.7
2018-12-20T09:31:33.382Z,23.9
2018-12-20T09:32:35.529Z,23.9
2018-12-20T09:33:37.942Z,23.9
2018-12-20T09:34:40.376Z,23.8
2018-12-20T09:35:42.805Z,23.7
2018-12-20T09:36:45.222Z,23.8
2018-12-20T09:37:47.362Z,23.9
2018-12-20T09:38:49.785Z,23.5
2018-12-20T09:39:51.977Z,23.7
2018-12-20T09:40:54.712Z,23.8
2018-12-20T09:41:56.882Z,23.9
2018-12-20T09:42:58.783Z,23.6
2018-12-20T09:44:00.952Z,23.7
2018-12-20T09:45:03.103Z,23.7
2018-12-20T09:46:05.541Z,23.8
2018-12-20T09:47:11.773Z,23.8
2018-12-20T09:48:12.964Z,23.8
2018-12-20T09:49:15.398Z,23.6
2018-12-20T09:50:17.278Z,23.8
2018-12-20T09:51:19.422Z,23.8
2018-12-20T09:52:21.844Z,24
2018-12-20T09:53:24.002Z,24
2018-12-20T09:54:26.164Z,23.9
2018-12-20T09:55:28.325Z,23.7
2018-12-20T09:56:30.734Z,23.7
2018-12-20T09:57:33.408Z,23.5
2018-12-20T09:58:35.875Z,23.9
2018-12-20T09:59:38.324Z,23.7
2018-12-20T10:00:40.185Z,23.9
2018-12-20T10:01:42.712Z,23.6
2018-12-20T10:02:45.159Z,23.7
2018-12-20T10:03:47.035Z,23.6
2018-12-20T10:04:49.193Z,23.8
2018-12-20T10:05:51.631Z,23.9
2018-12-20T10:06:53.507Z,23.8
2018-12-20T10:07:55.953Z,23.8
2018-12-20T10:08:57.907Z,23.8
2018-12-20T10:09:59.796Z,23.8
2018-12-20T10:11:02.235Z,23.9
2018-12-20T10:12:04.663Z,23.7
2018-12-20T10:13:07.104Z,23.7
2018-12-20T10:14:09.545Z,23.9
2018-12-20T10:15:11.693Z,23.8
2018-12-20T10:16:14.112Z,23.7
2018-12-20T10:17:19.914Z,23.7
2018-12-20T10:18:21.523Z,23.6
2018-12-20T10:19:23.702Z,23.7
2018-12-20T10:20:26.127Z,23.8
2018-12-20T10:21:28.573Z,23.7
2018-12-20T10:22:31.001Z,23.7
2018-12-20T10:23:33.437Z,23.8
2018-12-20T10:24:35.858Z,23.9
2018-12-20T10:25:38.007Z,23.6
2018-12-20T10:26:40.157Z,23.7
2018-12-20T10:27:42.593Z,24
2018-12-20T10:28:44.745Z,23.9
2018-12-20T10:29:46.893Z,23.7
2018-12-20T10:30:49.321Z,23.9
2018-12-20T10:31:51.471Z,23.5
2018-12-20T10:32:53.905Z,23.9
2018-12-20T10:33:56.343Z,23.8
2018-12-20T10:34:58.849Z,23.8
2018-12-20T10:36:01.281Z,23.8
2018-12-20T10:37:03.404Z,23.9
2018-12-20T10:38:05.835Z,23.9
2018-12-20T10:39:07.983Z,23.8
2018-12-20T10:40:09.864Z,23.7
2018-12-20T10:41:12.018Z,23.8
2018-12-20T10:42:14.440Z,23.9
2018-12-20T10:43:16.869Z,23.8
2018-12-20T10:44:19.031Z,23.8
2018-12-20T10:45:21.483Z,23.9
2018-12-20T10:46:23.658Z,23.9
2018-12-20T10:47:28.940Z,23.8
2018-12-20T10:48:30.795Z,23.7
2018-12-20T10:49:32.681Z,23.8
2018-12-20T10:50:34.535Z,23.7
2018-12-20T10:51:36.409Z,24.1
2018-12-20T10:52:38.539Z,23.8
2018-12-20T10:53:40.962Z,23.9
2018-12-20T10:54:43.480Z,23.9
2018-12-20T10:55:45.898Z,23.9
2018-12-20T10:56:48.328Z,23.8
2018-12-20T10:57:50.763Z,23.6
2018-12-20T10:58:53.194Z,23.6
2018-12-20T10:59:55.623Z,23.8
2018-12-20T11:00:57.790Z,23.9
2018-12-20T11:02:00.222Z,23.8
2018-12-20T11:03:02.387Z,23.7
2018-12-20T11:04:04.813Z,23.7
2018-12-20T11:05:07.236Z,23.6
2018-12-20T11:06:09.665Z,23.6
2018-12-20T11:07:12.098Z,23.8
2018-12-20T11:08:14.261Z,23.9
2018-12-20T11:09:16.409Z,23.6
2018-12-20T11:10:18.292Z,23.7
2018-12-20T11:11:20.726Z,23.7
2018-12-20T11:12:22.990Z,23.6
2018-12-20T11:13:25.143Z,23.9
2018-12-20T11:14:27.592Z,23.7
2018-12-20T11:15:29.732Z,23.8
2018-12-20T11:16:31.687Z,23.7
2018-12-20T11:17:37.407Z,23.5
2018-12-20T11:18:38.814Z,23.9
2018-12-20T11:19:40.691Z,23.6
2018-12-20T11:20:43.225Z,23.7
2018-12-20T11:21:45.794Z,23.6
2018-12-20T11:22:47.691Z,23.8
2018-12-20T11:23:50.122Z,23.5
2018-12-20T11:24:52.552Z,23.8
2018-12-20T11:25:54.971Z,23.6
2018-12-20T11:26:57.670Z,23.8
2018-12-20T11:27:59.867Z,23.7
2018-12-20T11:29:02.029Z,23.8
2018-12-20T11:30:04.455Z,23.8
2018-12-20T11:31:06.612Z,23.6
2018-12-20T11:32:09.094Z,23.8
2018-12-20T11:33:11.534Z,23.8
2018-12-20T11:34:13.971Z,23.7
2018-12-20T11:35:16.101Z,23.7
2018-12-20T11:36:18.523Z,23.8
2018-12-20T11:37:20.944Z,23.6
2018-12-20T11:38:23.368Z,23.9
2018-12-20T11:39:25.792Z,23.7
2018-12-20T11:40:28.226Z,23.6
2018-12-20T11:41:30.653Z,23.5
2018-12-20T11:42:32.821Z,23.7
2018-12-20T11:43:34.955Z,23.7
2018-12-20T11:44:37.115Z,23.7
2018-12-20T11:45:39.533Z,23.6
2018-12-20T11:46:41.983Z,23.8
2018-12-20T11:47:45.960Z,23.7
2018-12-20T11:48:48.367Z,23.6
2018-12-20T11:49:50.542Z,23.6
2018-12-20T11:50:52.968Z,23.8
2018-12-20T11:51:55.421Z,23.9
2018-12-20T11:52:57.845Z,23.9
2018-12-20T11:54:00.269Z,23.6
2018-12-20T11:55:02.469Z,23.8
2018-12-20T11:56:05.047Z,24.1
2018-12-20T11:57:07.484Z,23.6
2018-12-20T11:58:09.640Z,23.6
2018-12-20T11:59:11.791Z,23.5
2018-12-20T12:00:14.215Z,23.7
2018-12-20T12:01:16.747Z,23.7
2018-12-20T12:02:24.353Z,23.8
2018-12-20T12:03:23.893Z,23.7
2018-12-20T12:04:26.044Z,23.7
2018-12-20T12:05:27.941Z,23.6
2018-12-20T12:06:30.384Z,23.7
2018-12-20T12:07:32.853Z,23.7
2018-12-20T12:08:35.023Z,23.6
2018-12-20T12:09:37.193Z,23.7
2018-12-20T12:10:39.352Z,23.7
2018-12-20T12:11:41.776Z,23.7
2018-12-20T12:12:44.203Z,23.9
2018-12-20T12:13:46.343Z,23.8
2018-12-20T12:14:48.493Z,23.6
2018-12-20T12:15:50.360Z,23.7
2018-12-20T12:16:52.814Z,23.7
2018-12-20T12:17:55.234Z,23.6
2018-12-20T12:18:57.653Z,23.8
2018-12-20T12:20:00.087Z,23.7
2018-12-20T12:21:02.522Z,23.7
2018-12-20T12:22:04.687Z,23.8
2018-12-20T12:23:06.843Z,23.6
2018-12-20T12:24:09.295Z,23.5
2018-12-20T12:25:11.453Z,23.6
2018-12-20T12:26:13.875Z,23.5
2018-12-20T12:27:16.308Z,23.7
2018-12-20T12:28:18.743Z,23.8
2018-12-20T12:29:20.896Z,23.7
2018-12-20T12:30:23.351Z,23.8
2018-12-20T12:31:25.204Z,23.6
2018-12-20T12:32:27.673Z,23.6
2018-12-20T12:33:30.173Z,23.6
2018-12-20T12:34:32.613Z,23.9
2018-12-20T12:35:34.493Z,23.7
2018-12-20T12:36:36.649Z,23.6
2018-12-20T12:37:38.799Z,23.7
2018-12-20T12:38:41.224Z,23.8
2018-12-20T12:39:43.684Z,23.5
2018-12-20T12:40:46.111Z,23.6
2018-12-20T12:41:48.273Z,23.7
2018-12-20T12:42:50.708Z,23.8
2018-12-20T12:43:52.865Z,23.8
2018-12-20T12:44:55.003Z,23.8
2018-12-20T12:45:57.424Z,23.8
2018-12-20T12:46:59.847Z,23.7
2018-12-20T12:48:03.372Z,23.8
2018-12-20T12:49:06.041Z,23.6
2018-12-20T12:50:07.945Z,23.7
2018-12-20T12:51:10.098Z,23.6
2018-12-20T12:52:12.526Z,23.6
2018-12-20T12:53:14.956Z,23.9
2018-12-20T12:54:17.177Z,23.6
2018-12-20T12:55:19.338Z,23.5
2018-12-20T12:56:21.495Z,23.6
2018-12-20T12:57:23.383Z,23.5
2018-12-20T12:58:25.557Z,23.8
2018-12-20T12:59:27.734Z,23.6
2018-12-20T13:00:29.883Z,23.8
2018-12-20T13:01:32.040Z,23.9
2018-12-20T13:02:34.217Z,23.6
2018-12-20T13:03:36.766Z,23.8
2018-12-20T13:04:39.193Z,23.9
2018-12-20T13:05:41.631Z,23.7
2018-12-20T13:06:44.123Z,23.8
2018-12-20T13:07:46.613Z,23.7
2018-12-20T13:08:48.524Z,23.6
2018-12-20T13:09:50.693Z,23.5
2018-12-20T13:10:52.852Z,23.6
2018-12-20T13:11:55.283Z,23.9
2018-12-20T13:12:57.714Z,23.7
2018-12-20T13:14:00.139Z,23.7
2018-12-20T13:15:02.001Z,23.8
2018-12-20T13:16:04.130Z,23.7
2018-12-20T13:17:06.311Z,23.6
2018-12-20T13:18:13.660Z,23.5
2018-12-20T13:19:13.722Z,23.9
2018-12-20T13:20:16.195Z,23.7
2018-12-20T13:21:18.410Z,23.5
2018-12-20T13:22:20.836Z,23.7
2018-12-20T13:23:23.010Z,23.7
2018-12-20T13:24:26.913Z,23.7
2018-12-20T13:25:29.355Z,23.7
2018-12-20T13:26:31.505Z,23.7
2018-12-20T13:27:33.936Z,23.7
2018-12-20T13:28:36.369Z,23.5
2018-12-20T13:29:38.808Z,23.8
2018-12-20T13:30:40.956Z,23.8
2018-12-20T13:31:43.386Z,23.7
2018-12-20T13:32:45.535Z,23.8
2018-12-20T13:33:47.974Z,23.8
2018-12-20T13:34:50.134Z,23.6
2018-12-20T13:35:52.587Z,23.5
2018-12-20T13:36:54.711Z,23.8
2018-12-20T13:37:57.139Z,23.8
2018-12-20T13:38:59.557Z,23.6
2018-12-20T13:40:01.993Z,23.5
2018-12-20T13:41:04.204Z,23.5
2018-12-20T13:42:06.096Z,23.7
2018-12-20T13:43:08.521Z,23.7
2018-12-20T13:44:10.680Z,23.5
2018-12-20T13:45:13.191Z,23.6
2018-12-20T13:46:15.729Z,23.8
2018-12-20T13:47:18.870Z,23.5
2018-12-20T13:48:22.290Z,23.8
2018-12-20T13:49:24.147Z,23.8
2018-12-20T13:50:26.591Z,23.6
2018-12-20T13:51:29.014Z,23.7
2018-12-20T13:52:31.439Z,23.6
2018-12-20T13:53:33.604Z,23.6
2018-12-20T13:54:35.783Z,23.7
2018-12-20T13:55:37.953Z,23.7